Time;durP1;ratioP1;P1;durP2;ratioP2;P2;SDS_P1;SDS_P2;PMS_P1;PMS_P2;Temp;Humidity;BMP_temperature;BMP_pressure;BME280_temperature;BME280_humidity;BME280_pressure;Samples;Min_cycle;Max_cycle;Signal;HPM_P1;HPM_P2
2022/06/25 00:01:40;;;;;;;5.05;4.85;;;;;;;-143.83;100.00;62900.06;5027175;28;20109;-62
2022/06/25 00:05:27;;;;;;;5.15;4.95;;;;;;;-143.83;100.00;62900.06;5033172;28;20063;-61
2022/06/25 00:06:51;;;;;;;5.10;4.90;;;;;;;-143.83;100.00;62900.06;5033058;28;20051;-62
2022/06/25 00:09:17;;;;;;;5.05;4.85;;;;;;;-143.83;100.00;62900.06;5033272;28;20033;-62
2022/06/25 00:14:26;;;;;;;5.10;4.90;;;;;;;-143.83;100.00;62900.06;5040807;28;20040;-61
2022/06/25 00:16:52;;;;;;;5.10;4.90;;;;;;;-143.83;100.00;62900.06;5033937;28;20026;-61
2022/06/25 00:19:17;;;;;;;5.10;4.90;;;;;;;-143.83;100.00;62900.06;5033664;28;20069;-61
2022/06/25 00:21:42;;;;;;;5.18;4.97;;;;;;;-143.83;100.00;62900.06;5033314;28;20083;-61
2022/06/25 00:24:08;;;;;;;5.10;4.90;;;;;;;-143.83;100.00;62900.06;5028729;28;20029;-61
2022/06/25 00:26:33;;;;;;;5.00;4.80;;;;;;;-143.83;100.00;62900.06;5027610;28;20075;-61
2022/06/25 00:28:59;;;;;;;5.10;4.90;;;;;;;-143.83;100.00;62900.06;5033823;28;20445;-61
2022/06/25 00:31:25;;;;;;;5.10;4.90;;;;;;;-143.83;100.00;62900.06;5034738;28;20029;-61
2022/06/25 00:33:50;;;;;;;5.05;4.85;;;;;;;-143.83;100.00;62900.06;5033621;28;20022;-61
2022/06/25 00:36:16;;;;;;;5.00;4.80;;;;;;;-143.83;100.00;62900.06;5033917;28;20059;-61
2022/06/25 00:38:41;;;;;;;5.10;4.90;;;;;;;-143.83;100.00;62900.06;5031755;28;20029;-61
2022/06/25 00:41:07;;;;;;;5.10;4.90;;;;;;;-143.83;100.00;62900.06;5033978;28;20026;-61
2022/06/25 00:43:38;;;;;;;5.22;5.03;;;;;;;-143.83;100.00;62900.06;5032850;28;20120;-60
2022/06/25 00:46:03;;;;;;;5.20;5.00;;;;;;;-143.83;100.00;62900.06;5034685;28;20022;-60
2022/06/25 00:48:29;;;;;;;5.10;4.90;;;;;;;-143.83;100.00;62900.06;5035233;28;20540;-61
2022/06/25 00:50:58;;;;;;;5.03;4.82;;;;;;;-143.83;100.00;62900.06;5034235;28;20447;-62
2022/06/25 00:53:30;;;;;;;4.97;4.78;;;;;;;-143.83;100.00;62900.06;5023994;28;20041;-61
2022/06/25 00:55:58;;;;;;;4.90;4.70;;;;;;;-143.83;100.00;62900.06;5031404;28;20503;-61
2022/06/25 00:58:29;;;;;;;4.90;4.70;;;;;;;-143.83;100.00;62900.06;5033470;28;20033;-61
2022/06/25 01:00:55;;;;;;;5.07;4.88;;;;;;;-143.83;100.00;62900.06;5030228;28;20397;-60
2022/06/25 01:03:20;;;;;;;5.00;4.80;;;;;;;-143.83;100.00;62900.06;5026510;28;20032;-60
2022/06/25 01:05:46;;;;;;;4.90;4.70;;;;;;;-143.83;100.00;62900.06;5038023;28;20052;-60
2022/06/25 01:08:11;;;;;;;4.90;4.70;;;;;;;-143.83;100.00;62900.06;5029647;28;20052;-62
2022/06/25 01:10:37;;;;;;;4.90;4.70;;;;;;;-143.83;100.00;62900.06;5032910;28;20021;-61
2022/06/25 01:13:02;;;;;;;4.97;4.78;;;;;;;-143.83;100.00;62900.06;5019914;28;20041;-61
2022/06/25 01:15:28;;;;;;;4.90;4.70;;;;;;;-143.83;100.00;62900.06;5021504;28;20029;-60
2022/06/25 01:17:53;;;;;;;5.00;4.80;;;;;;;-143.83;100.00;62900.06;5019345;28;20079;-61
2022/06/25 01:20:21;;;;;;;5.00;4.80;;;;;;;-143.83;100.00;62900.06;5032769;28;20496;-62
2022/06/25 01:22:47;;;;;;;4.90;4.70;;;;;;;-143.83;100.00;62900.06;5040049;28;20399;-62
2022/06/25 01:25:13;;;;;;;5.07;4.88;;;;;;;-143.83;100.00;62900.06;5032543;28;20485;-62
2022/06/25 01:27:39;;;;;;;5.00;4.80;;;;;;;-143.83;100.00;62900.06;5031040;28;20036;-60
2022/06/25 01:30:07;;;;;;;5.10;4.90;;;;;;;-143.83;100.00;62900.06;5028973;28;20029;-63
2022/06/25 01:32:33;;;;;;;4.85;4.65;;;;;;;-143.83;100.00;62900.06;5031665;28;20389;-61
2022/06/25 01:34:59;;;;;;;5.00;4.80;;;;;;;-143.83;100.00;62900.06;5031658;28;20026;-60
2022/06/25 01:37:24;;;;;;;5.00;4.80;;;;;;;-143.83;100.00;62900.06;5031560;28;20033;-61
2022/06/25 01:39:56;;;;;;;4.80;4.60;;;;;;;-143.83;100.00;62900.06;5043071;28;20041;-61
2022/06/25 01:45:08;;;;;;;4.88;4.68;;;;;;;-143.83;100.00;62900.06;5028306;28;20112;-60
2022/06/25 01:47:33;;;;;;;5.00;4.80;;;;;;;-143.83;100.00;62900.06;5029766;28;20116;-61
2022/06/25 01:49:59;;;;;;;5.00;4.80;;;;;;;-143.83;100.00;62900.06;5032241;28;20145;-61
2022/06/25 01:52:24;;;;;;;4.82;4.63;;;;;;;-143.83;100.00;62900.06;5028093;28;20041;-60
2022/06/25 01:54:50;;;;;;;4.88;4.68;;;;;;;-143.83;100.00;62900.06;5017990;28;20462;-61
2022/06/25 01:57:15;;;;;;;5.00;4.80;;;;;;;-143.83;100.00;62900.06;5031084;28;20032;-61
2022/06/25 01:59:41;;;;;;;4.97;4.78;;;;;;;-143.83;100.00;62900.06;5032077;28;20104;-60
2022/06/25 02:02:06;;;;;;;4.80;4.60;;;;;;;-143.83;100.00;62900.06;5031993;28;20075;-61
2022/06/25 02:04:32;;;;;;;4.93;4.72;;;;;;;-143.83;100.00;62900.06;5030836;28;20029;-61
2022/06/25 02:06:57;;;;;;;4.78;4.57;;;;;;;-143.83;100.00;62900.06;5031974;28;20056;-61
2022/06/25 02:09:23;;;;;;;4.70;4.50;;;;;;;-143.83;100.00;62900.06;5020906;28;20053;-62
2022/06/25 02:11:48;;;;;;;4.80;4.60;;;;;;;-143.83;100.00;62900.06;5023699;28;20033;-62
2022/06/25 02:14:15;;;;;;;4.90;4.70;;;;;;;-143.83;100.00;62900.06;5043568;28;20051;-62
2022/06/25 02:16:41;;;;;;;5.00;4.80;;;;;;;-143.83;100.00;62900.06;5031469;28;20104;-61
2022/06/25 02:19:07;;;;;;;4.97;4.78;;;;;;;-143.83;100.00;62900.06;5031340;28;20036;-62
2022/06/25 02:21:32;;;;;;;5.00;4.80;;;;;;;-143.83;100.00;62900.06;5030119;28;20030;-62
2022/06/25 02:23:58;;;;;;;5.03;4.82;;;;;;;-143.83;100.00;62900.06;5031952;28;20385;-62
2022/06/25 02:26:23;;;;;;;4.90;4.70;;;;;;;-143.83;100.00;62900.06;5030719;28;20018;-62
2022/06/25 02:28:49;;;;;;;4.85;4.65;;;;;;;-143.83;100.00;62900.06;5031631;28;20021;-61
2022/06/25 02:31:14;;;;;;;4.70;4.50;;;;;;;-143.83;100.00;62900.06;5032277;28;20030;-62
2022/06/25 02:33:40;;;;;;;4.88;4.68;;;;;;;-143.83;100.00;62900.06;5032019;28;20211;-62
2022/06/25 02:36:05;;;;;;;4.85;4.65;;;;;;;-143.83;100.00;62900.06;5030496;28;20091;-61
2022/06/25 02:38:31;;;;;;;4.85;4.65;;;;;;;-143.83;100.00;62900.06;5030680;28;20087;-61
2022/06/25 02:40:56;;;;;;;4.88;4.68;;;;;;;-143.83;100.00;62900.06;5031444;28;20043;-61
2022/06/25 02:43:22;;;;;;;4.90;4.70;;;;;;;-143.83;100.00;62900.06;5030052;28;20025;-61
2022/06/25 02:45:47;;;;;;;4.78;4.57;;;;;;;-143.83;100.00;62900.06;5030599;28;20116;-62
2022/06/25 02:48:13;;;;;;;4.72;4.53;;;;;;;-143.83;100.00;62900.06;5031197;28;20022;-61
2022/06/25 02:50:39;;;;;;;4.88;4.68;;;;;;;-143.83;100.00;62900.06;5025090;28;20053;-61
2022/06/25 02:53:04;;;;;;;5.10;4.90;;;;;;;-143.83;100.00;62900.06;5031615;28;20036;-61
2022/06/25 03:00:58;;;;;;;5.47;5.28;;;;;;;-143.83;100.00;62900.06;5031563;28;20064;-61
2022/06/25 03:03:23;;;;;;;5.32;5.13;;;;;;;-143.83;100.00;62900.06;5031959;28;20438;-61
2022/06/25 03:05:49;;;;;;;5.40;5.20;;;;;;;-143.83;100.00;62900.06;5022851;28;20036;-61
2022/06/25 03:08:15;;;;;;;5.40;5.20;;;;;;;-143.83;100.00;62900.06;5029883;28;20056;-61
2022/06/25 03:10:40;;;;;;;5.50;5.30;;;;;;;-143.83;100.00;62900.06;5028332;28;20030;-61
2022/06/25 03:13:06;;;;;;;5.45;5.25;;;;;;;-143.83;100.00;62900.06;5029593;28;20030;-61
2022/06/25 03:15:31;;;;;;;5.50;5.30;;;;;;;-143.83;100.00;62900.06;5026758;28;20026;-61
2022/06/25 03:17:57;;;;;;;5.43;5.22;;;;;;;-143.83;100.00;62900.06;5031300;28;20022;-60
2022/06/25 03:20:22;;;;;;;5.57;5.38;;;;;;;-143.83;100.00;62900.06;5031600;28;20108;-60
2022/06/25 03:22:48;;;;;;;5.78;5.57;;;;;;;-143.83;100.00;62900.06;5030564;28;20500;-61
2022/06/25 03:25:13;;;;;;;5.70;5.50;;;;;;;-143.83;100.00;62900.06;5031051;28;20022;-61
2022/06/25 03:27:38;;;;;;;5.90;5.70;;;;;;;-143.83;100.00;62900.06;5030212;28;20060;-60
2022/06/25 03:30:05;;;;;;;5.70;5.50;;;;;;;-143.83;100.00;62900.06;5033937;28;20036;-60
2022/06/25 03:32:30;;;;;;;5.85;5.65;;;;;;;-143.83;100.00;62900.06;5033345;28;20461;-62
2022/06/25 03:34:55;;;;;;;5.75;5.55;;;;;;;-143.83;100.00;62900.06;5033442;28;20116;-60
2022/06/25 03:37:21;;;;;;;5.90;5.70;;;;;;;-143.83;100.00;62900.06;5026620;28;20505;-62
2022/06/25 03:39:47;;;;;;;5.68;5.47;;;;;;;-143.83;100.00;62900.06;5031852;28;20029;-61
2022/06/25 03:42:12;;;;;;;5.78;5.57;;;;;;;-143.83;100.00;62900.06;5024709;28;20040;-61
2022/06/25 03:44:38;;;;;;;5.80;5.60;;;;;;;-143.83;100.00;62900.06;5033584;28;20030;-61
2022/06/25 03:47:04;;;;;;;5.88;5.68;;;;;;;-143.83;100.00;62900.06;5031484;28;20033;-61
2022/06/25 03:49:30;;;;;;;5.80;5.60;;;;;;;-143.83;100.00;62900.06;5033760;28;20072;-61
2022/06/25 03:51:55;;;;;;;5.85;5.65;;;;;;;-143.83;100.00;62900.06;5033634;28;20026;-61
2022/06/25 03:54:21;;;;;;;6.00;5.80;;;;;;;-143.83;100.00;62900.06;5034723;28;20032;-61
2022/06/25 03:56:46;;;;;;;5.85;5.65;;;;;;;-143.83;100.00;62900.06;5034094;28;20040;-61
2022/06/25 03:59:12;;;;;;;6.00;5.80;;;;;;;-143.83;100.00;62900.06;5033152;28;20028;-61
2022/06/25 04:01:37;;;;;;;5.72;5.53;;;;;;;-143.83;100.00;62900.06;5032677;28;20029;-62
2022/06/25 04:04:03;;;;;;;5.80;5.60;;;;;;;-143.83;100.00;62900.06;5025695;28;20034;-62
2022/06/25 04:06:28;;;;;;;5.82;5.63;;;;;;;-143.83;100.00;62900.06;5029539;28;20021;-61
2022/06/25 04:08:54;;;;;;;6.00;5.80;;;;;;;-143.83;100.00;62900.06;5026971;28;20026;-61
2022/06/25 04:11:19;;;;;;;5.90;5.70;;;;;;;-143.83;100.00;62900.06;5028304;28;20047;-61
2022/06/25 04:13:45;;;;;;;5.95;5.75;;;;;;;-143.83;100.00;62900.06;5032934;28;20026;-62
2022/06/25 04:16:10;;;;;;;5.90;5.70;;;;;;;-143.83;100.00;62900.06;5032428;28;20017;-62
2022/06/25 04:18:36;;;;;;;5.90;5.70;;;;;;;-143.83;100.00;62900.06;5032972;28;20029;-61
2022/06/25 04:21:02;;;;;;;6.00;5.80;;;;;;;-143.83;100.00;62900.06;5033368;28;20496;-62
2022/06/25 04:23:27;;;;;;;5.93;5.72;;;;;;;-143.83;100.00;62900.06;5033889;28;20029;-62
2022/06/25 04:25:53;;;;;;;6.05;5.85;;;;;;;-143.83;100.00;62900.06;5033520;28;20095;-61
2022/06/25 04:31:03;;;;;;;6.00;5.80;;;;;;;-143.83;100.00;62900.06;5033054;28;20116;-62
2022/06/25 04:33:29;;;;;;;6.15;5.95;;;;;;;-143.83;100.00;62900.06;5033839;28;20097;-62
2022/06/25 04:35:54;;;;;;;6.40;6.10;;;;;;;-143.83;100.00;62900.06;5030282;28;20047;-62
2022/06/25 04:38:20;;;;;;;6.40;6.10;;;;;;;-143.83;100.00;62900.06;5033437;28;20025;-61
2022/06/25 04:40:45;;;;;;;6.20;6.00;;;;;;;-143.83;100.00;62900.06;5031159;28;20485;-62
2022/06/25 04:43:10;;;;;;;6.05;5.85;;;;;;;-143.83;100.00;62900.06;5032020;28;20128;-62
2022/06/25 04:45:36;;;;;;;6.00;5.80;;;;;;;-143.83;100.00;62900.06;5034504;28;20033;-62
2022/06/25 04:48:03;;;;;;;6.00;5.80;;;;;;;-143.83;100.00;62900.06;5026464;28;20116;-62
2022/06/25 04:50:29;;;;;;;6.18;5.97;;;;;;;-143.83;100.00;62900.06;5032608;28;20129;-62
2022/06/25 04:52:55;;;;;;;6.03;5.82;;;;;;;-143.83;100.00;62900.06;5030492;28;20033;-60
2022/06/25 04:55:20;;;;;;;6.35;6.05;;;;;;;-143.83;100.00;62900.06;5033085;28;20022;-62
2022/06/25 04:57:46;;;;;;;6.47;6.18;;;;;;;-143.83;100.00;62900.06;5033215;28;20412;-62
2022/06/25 05:00:12;;;;;;;6.10;5.90;;;;;;;-143.83;100.00;62900.06;5031084;28;20104;-62
2022/06/25 05:02:38;;;;;;;6.40;6.10;;;;;;;-143.83;100.00;62900.06;5024522;28;20029;-61
2022/06/25 05:05:04;;;;;;;6.03;5.82;;;;;;;-143.83;100.00;62900.06;5022288;28;20041;-61
2022/06/25 05:07:30;;;;;;;6.13;5.93;;;;;;;-143.83;100.00;62900.06;5031652;28;20028;-60
2022/06/25 05:09:56;;;;;;;6.15;5.95;;;;;;;-143.83;100.00;62900.06;5020212;28;20030;-61
2022/06/25 05:15:07;;;;;;;6.60;6.30;;;;;;;-143.83;100.00;62900.06;5028400;28;20040;-61
2022/06/25 05:17:33;;;;;;;6.30;6.05;;;;;;;-143.83;100.00;62900.06;5021442;28;20029;-61
2022/06/25 05:19:58;;;;;;;6.20;6.00;;;;;;;-143.83;100.00;62900.06;5032425;28;20036;-62
2022/06/25 05:22:24;;;;;;;6.43;6.13;;;;;;;-143.83;100.00;62900.06;5032644;28;20107;-62
2022/06/25 05:24:49;;;;;;;6.28;6.00;;;;;;;-143.83;100.00;62900.06;5032417;28;20029;-61
2022/06/25 05:27:15;;;;;;;6.30;6.05;;;;;;;-143.83;100.00;62900.06;5031334;28;20183;-61
2022/06/25 05:29:40;;;;;;;6.50;6.20;;;;;;;-143.83;100.00;62900.06;5032668;28;20472;-61
2022/06/25 05:32:06;;;;;;;6.57;6.28;;;;;;;-143.83;100.00;62900.06;5028431;28;20124;-61
2022/06/25 05:34:32;;;;;;;6.40;6.10;;;;;;;-143.83;100.00;62900.06;5030465;28;20044;-61
2022/06/25 05:36:57;;;;;;;6.20;6.00;;;;;;;-143.83;100.00;62900.06;5032734;28;20531;-62
2022/06/25 05:39:22;;;;;;;6.05;5.85;;;;;;;-143.83;100.00;62900.06;5032353;28;20026;-62
2022/06/25 05:41:48;;;;;;;6.05;5.85;;;;;;;-143.83;100.00;62900.06;5032176;28;20017;-61
2022/06/25 05:44:13;;;;;;;6.35;6.05;;;;;;;-143.83;100.00;62900.06;5031331;28;20047;-62
2022/06/25 05:46:39;;;;;;;6.10;5.90;;;;;;;-143.83;100.00;62900.06;5032080;28;20537;-60
2022/06/25 05:49:04;;;;;;;6.07;5.88;;;;;;;-143.83;100.00;62900.06;5028836;28;20393;-62
2022/06/25 05:51:30;;;;;;;6.10;5.90;;;;;;;-143.83;100.00;62900.06;5025509;28;20026;-62
2022/06/25 05:53:56;;;;;;;6.25;6.05;;;;;;;-143.83;100.00;62900.06;5032726;28;20025;-62
2022/06/25 05:56:21;;;;;;;6.35;6.10;;;;;;;-143.83;100.00;62900.06;5030421;28;20025;-63
2022/06/25 05:58:47;;;;;;;6.47;6.18;;;;;;;-143.83;100.00;62900.06;5032249;28;20021;-62
2022/06/25 06:01:12;;;;;;;6.65;6.35;;;;;;;-143.83;100.00;62900.06;5030299;28;20029;-61
2022/06/25 06:03:38;;;;;;;6.60;6.30;;;;;;;-143.83;100.00;62900.06;5030452;28;20045;-62
2022/06/25 06:06:03;;;;;;;6.55;6.25;;;;;;;-143.83;100.00;62900.06;5030156;28;20025;-62
2022/06/25 06:08:29;;;;;;;6.60;6.30;;;;;;;-143.83;100.00;62900.06;5028118;28;20033;-62
2022/06/25 06:10:54;;;;;;;6.57;6.28;;;;;;;-143.83;100.00;62900.06;5030126;28;20032;-62
2022/06/25 06:13:20;;;;;;;6.43;6.13;;;;;;;-143.83;100.00;62900.06;5018453;28;20033;-62
2022/06/25 06:15:45;;;;;;;6.15;5.95;;;;;;;-143.83;100.00;62900.06;5028157;28;20463;-62
2022/06/25 06:18:11;;;;;;;6.05;5.85;;;;;;;-143.83;100.00;62900.06;5024883;28;20108;-62
2022/06/25 06:20:36;;;;;;;6.10;5.90;;;;;;;-143.83;100.00;62900.06;5016421;28;20088;-62
2022/06/25 06:23:02;;;;;;;6.05;5.85;;;;;;;-143.83;100.00;62900.06;5023662;28;20057;-62
2022/06/25 06:25:27;;;;;;;6.32;6.05;;;;;;;-143.83;100.00;62900.06;5030297;28;20393;-63
2022/06/25 06:27:53;;;;;;;6.18;5.97;;;;;;;-143.83;100.00;62900.06;5031798;28;20063;-63
2022/06/25 06:30:18;;;;;;;6.28;6.07;;;;;;;-143.83;100.00;62900.06;5031610;28;20022;-62
2022/06/25 06:32:44;;;;;;;6.20;6.00;;;;;;;-143.83;100.00;62900.06;5028576;28;20104;-62
2022/06/25 06:35:09;;;;;;;6.50;6.20;;;;;;;-143.83;100.00;62900.06;5020602;28;20458;-62
2022/06/25 06:37:36;;;;;;;6.43;6.13;;;;;;;-143.83;100.00;62900.06;5023656;28;20488;-62
2022/06/25 06:40:01;;;;;;;6.60;6.30;;;;;;;-143.83;100.00;62900.06;5029284;28;20063;-62
2022/06/25 06:42:26;;;;;;;6.60;6.30;;;;;;;-143.83;100.00;62900.06;5031738;28;20461;-62
2022/06/25 06:44:52;;;;;;;6.60;6.30;;;;;;;-143.83;100.00;62900.06;5036656;28;20039;-62
2022/06/25 06:47:17;;;;;;;6.70;6.40;;;;;;;-143.83;100.00;62900.06;5035612;28;20087;-61
2022/06/25 06:49:43;;;;;;;6.30;6.05;;;;;;;-143.83;100.00;62900.06;5031434;28;20041;-63
2022/06/25 06:52:08;;;;;;;6.03;5.82;;;;;;;-143.83;100.00;62900.06;5025096;28;20060;-62
2022/06/25 06:54:34;;;;;;;6.60;6.30;;;;;;;-143.83;100.00;62900.06;5022346;28;20026;-62
2022/06/25 06:56:59;;;;;;;6.60;6.30;;;;;;;-143.83;100.00;62900.06;5029671;28;20071;-62
2022/06/25 06:59:24;;;;;;;6.60;6.30;;;;;;;-143.83;100.00;62900.06;5031303;28;20079;-62
2022/06/25 07:01:50;;;;;;;6.45;6.15;;;;;;;-143.83;100.00;62900.06;5031882;28;20018;-63
2022/06/25 07:04:16;;;;;;;6.45;6.15;;;;;;;-143.83;100.00;62900.06;5033048;28;20044;-62
2022/06/25 07:06:41;;;;;;;6.57;6.28;;;;;;;-143.83;100.00;62900.06;5030276;28;20037;-62
2022/06/25 07:09:06;;;;;;;6.35;6.07;;;;;;;-143.83;100.00;62900.06;5029763;28;20108;-63
2022/06/25 07:11:32;;;;;;;6.57;6.28;;;;;;;-143.83;100.00;62900.06;5034706;28;20037;-61
2022/06/25 07:14:04;;;;;;;6.35;6.07;;;;;;;-143.83;100.00;62900.06;5029543;28;20025;-62
2022/06/25 07:16:30;;;;;;;6.63;6.32;;;;;;;-143.83;100.00;62900.06;5034824;28;20021;-62
2022/06/25 07:18:58;;;;;;;6.45;6.15;;;;;;;-143.83;100.00;62900.06;5016562;28;20025;-62
2022/06/25 07:21:25;;;;;;;6.35;6.07;;;;;;;-143.83;100.00;62900.06;5020762;28;20028;-63
2022/06/25 07:23:51;;;;;;;6.20;6.00;;;;;;;-143.83;100.00;62900.06;5022615;28;20419;-61
2022/06/25 07:26:17;;;;;;;6.30;6.07;;;;;;;-143.83;100.00;62900.06;5029425;28;20025;-61
2022/06/25 07:28:42;;;;;;;6.10;5.90;;;;;;;-143.83;100.00;62900.06;5032449;28;20393;-61
2022/06/25 07:31:08;;;;;;;5.93;5.72;;;;;;;-143.83;100.00;62900.06;5028954;28;20037;-65
2022/06/25 07:33:34;;;;;;;5.90;5.70;;;;;;;-143.83;100.00;62900.06;5034102;28;20025;-59
2022/06/25 07:36:00;;;;;;;6.15;5.95;;;;;;;-143.83;100.00;62900.06;5034068;28;20025;-60
2022/06/25 07:38:25;;;;;;;5.72;5.53;;;;;;;-143.83;100.00;62900.06;5030701;28;20029;-60
2022/06/25 07:40:51;;;;;;;5.80;5.60;;;;;;;-143.83;100.00;62900.06;5027369;28;20037;-61
2022/06/25 07:43:17;;;;;;;6.10;5.90;;;;;;;-143.83;100.00;62900.06;5030407;28;20401;-60
2022/06/25 07:45:43;;;;;;;5.90;5.70;;;;;;;-143.83;100.00;62900.06;5032469;28;20032;-60
2022/06/25 07:48:09;;;;;;;5.80;5.60;;;;;;;-143.83;100.00;62900.06;5033446;28;20061;-59
2022/06/25 07:53:19;;;;;;;5.80;5.60;;;;;;;-143.83;100.00;62900.06;5034340;28;20087;-60
2022/06/25 07:55:44;;;;;;;6.00;5.80;;;;;;;-143.83;100.00;62900.06;5034464;28;20022;-60
2022/06/25 07:58:10;;;;;;;5.90;5.70;;;;;;;-143.83;100.00;62900.06;5033815;28;20099;-60
2022/06/25 08:00:36;;;;;;;5.90;5.70;;;;;;;-143.83;100.00;62900.06;5024718;28;20113;-60
2022/06/25 08:03:01;;;;;;;5.70;5.50;;;;;;;-143.83;100.00;62900.06;5030696;28;20061;-59
2022/06/25 08:05:27;;;;;;;5.80;5.60;;;;;;;-143.83;100.00;62900.06;5033773;28;20396;-61
2022/06/25 08:07:53;;;;;;;5.85;5.65;;;;;;;-143.83;100.00;62900.06;5033741;28;20026;-59
2022/06/25 08:10:19;;;;;;;5.90;5.70;;;;;;;-143.83;100.00;62900.06;5033867;28;20388;-59
2022/06/25 08:12:44;;;;;;;6.05;5.85;;;;;;;-143.83;100.00;62900.06;5034151;28;20022;-60
2022/06/25 08:15:11;;;;;;;5.43;5.22;;;;;;;-143.83;100.00;62900.06;5032829;28;20018;-59
2022/06/25 08:17:37;;;;;;;5.70;5.50;;;;;;;-143.83;100.00;62900.06;5032833;28;20074;-61
2022/06/25 08:20:03;;;;;;;5.80;5.60;;;;;;;-143.83;100.00;62900.06;5033728;28;20048;-61
2022/06/25 08:22:28;;;;;;;5.63;5.43;;;;;;;-143.83;100.00;62900.06;5033787;28;20048;-60
2022/06/25 08:24:54;;;;;;;5.85;5.65;;;;;;;-143.83;100.00;62900.06;5033364;28;20056;-61
2022/06/25 08:27:20;;;;;;;5.97;5.78;;;;;;;-143.83;100.00;62900.06;5033761;28;20439;-60
2022/06/25 08:29:45;;;;;;;5.68;5.47;;;;;;;-143.83;100.00;62900.06;5033752;28;20033;-60
2022/06/25 08:32:11;;;;;;;5.75;5.55;;;;;;;-143.83;100.00;62900.06;5025494;28;20728;-60
2022/06/25 08:34:37;;;;;;;6.00;5.80;;;;;;;-143.83;100.00;62900.06;5032451;28;20029;-61
2022/06/25 08:37:02;;;;;;;5.60;5.40;;;;;;;-143.83;100.00;62900.06;5033660;28;20029;-59
2022/06/25 08:39:28;;;;;;;5.70;5.50;;;;;;;-143.83;100.00;62900.06;5033466;28;20032;-61
2022/06/25 08:41:55;;;;;;;5.70;5.50;;;;;;;-143.83;100.00;62900.06;5033480;28;20026;-60
2022/06/25 08:44:20;;;;;;;5.60;5.40;;;;;;;-143.83;100.00;62900.06;5033231;28;20071;-60
2022/06/25 08:46:46;;;;;;;5.60;5.40;;;;;;;-143.83;100.00;62900.06;5033590;28;20022;-59
2022/06/25 08:49:12;;;;;;;5.60;5.40;;;;;;;-143.83;100.00;62900.06;5030799;28;20126;-60
2022/06/25 08:51:39;;;;;;;5.70;5.50;;;;;;;-143.83;100.00;62900.06;5031675;28;20033;-60
2022/06/25 08:54:08;;;;;;;5.70;5.50;;;;;;;-143.83;100.00;62900.06;5033405;28;20060;-60
2022/06/25 08:56:35;;;;;;;5.70;5.50;;;;;;;-143.83;100.00;62900.06;5033386;28;20021;-60
2022/06/25 08:59:02;;;;;;;5.65;5.45;;;;;;;-143.83;100.00;62900.06;5033524;28;20025;-60
2022/06/25 09:01:27;;;;;;;5.80;5.60;;;;;;;-143.83;100.00;62900.06;5032945;28;20056;-60
2022/06/25 09:03:53;;;;;;;5.65;5.45;;;;;;;-143.83;100.00;62900.06;5033132;28;20060;-60
2022/06/25 09:06:21;;;;;;;5.85;5.65;;;;;;;-143.83;100.00;62900.06;5032716;28;20056;-60
2022/06/25 09:09:10;;;;;;;5.63;5.43;;;;;;;-143.83;100.00;62900.06;5032074;28;20037;-60
2022/06/25 09:11:58;;;;;;;5.68;5.47;;;;;;;-143.83;100.00;62900.06;5032919;28;20030;-60
2022/06/25 09:14:28;;;;;;;5.70;5.50;;;;;;;-143.83;100.00;62900.06;5032609;28;20032;-60
2022/06/25 09:17:12;;;;;;;5.68;5.47;;;;;;;-143.83;100.00;62900.06;5033005;28;20024;-60
2022/06/25 09:19:50;;;;;;;5.60;5.40;;;;;;;-143.83;100.00;62900.06;5020116;28;20076;-60
2022/06/25 09:22:19;;;;;;;5.57;5.38;;;;;;;-143.83;100.00;62900.06;5032595;28;20033;-60
2022/06/25 09:24:46;;;;;;;5.70;5.50;;;;;;;-143.83;100.00;62900.06;5030998;28;20040;-60
2022/06/25 09:27:14;;;;;;;5.60;5.40;;;;;;;-143.83;100.00;62900.06;5022203;28;20037;-60
2022/06/25 09:29:44;;;;;;;5.70;5.50;;;;;;;-143.83;100.00;62900.06;5026905;28;20061;-61
2022/06/25 09:32:11;;;;;;;5.50;5.30;;;;;;;-143.83;100.00;62900.06;5032242;28;20026;-60
2022/06/25 09:34:38;;;;;;;5.60;5.40;;;;;;;-143.83;100.00;62900.06;5032435;28;20488;-59
2022/06/25 09:37:23;;;;;;;5.70;5.50;;;;;;;-143.83;100.00;62900.06;5032439;28;20444;-61
2022/06/25 09:39:49;;;;;;;5.63;5.43;;;;;;;-143.83;100.00;62900.06;5032219;28;20018;-60
2022/06/25 09:42:24;;;;;;;5.60;5.40;;;;;;;-143.83;100.00;62900.06;5031334;28;20459;-60
2022/06/25 09:45:01;;;;;;;5.70;5.50;;;;;;;-143.83;100.00;62900.06;5031850;28;20542;-61
2022/06/25 09:47:27;;;;;;;5.60;5.40;;;;;;;-143.83;100.00;62900.06;5031949;28;20034;-60
2022/06/25 09:50:04;;;;;;;5.70;5.50;;;;;;;-143.83;100.00;62900.06;5032049;28;20057;-60
2022/06/25 09:52:31;;;;;;;5.60;5.40;;;;;;;-143.83;100.00;62900.06;5032069;28;20025;-59
2022/06/25 09:54:56;;;;;;;5.70;5.50;;;;;;;-143.83;100.00;62900.06;5032199;28;20111;-60
2022/06/25 09:57:24;;;;;;;5.60;5.40;;;;;;;-143.83;100.00;62900.06;5032345;28;20126;-61
2022/06/25 09:59:51;;;;;;;5.50;5.30;;;;;;;-143.83;100.00;62900.06;5031220;28;20033;-61
2022/06/25 10:02:18;;;;;;;5.50;5.30;;;;;;;-143.83;100.00;62900.06;5031911;28;20033;-60
2022/06/25 10:04:46;;;;;;;5.60;5.40;;;;;;;-143.83;100.00;62900.06;5032203;28;20025;-60
2022/06/25 10:07:15;;;;;;;5.70;5.50;;;;;;;-143.83;100.00;62900.06;5031719;28;20032;-59
2022/06/25 10:09:42;;;;;;;5.60;5.40;;;;;;;-143.83;100.00;62900.06;5031598;28;20508;-61
2022/06/25 10:12:09;;;;;;;5.68;5.47;;;;;;;-143.83;100.00;62900.06;5031682;28;20108;-61
2022/06/25 10:14:36;;;;;;;5.60;5.40;;;;;;;-143.83;100.00;62900.06;5032065;28;20037;-61
2022/06/25 10:17:03;;;;;;;5.38;5.18;;;;;;;-143.83;100.00;62900.06;5030701;28;20037;-60
2022/06/25 10:19:32;;;;;;;5.53;5.32;;;;;;;-143.83;100.00;62900.06;5031763;28;20029;-61
2022/06/25 10:21:59;;;;;;;5.50;5.30;;;;;;;-143.83;100.00;62900.06;5030995;28;20515;-61
2022/06/25 10:24:25;;;;;;;5.55;5.35;;;;;;;-143.83;100.00;62900.06;5031317;28;20436;-59
2022/06/25 10:26:51;;;;;;;5.60;5.40;;;;;;;-143.83;100.00;62900.06;5031862;28;20033;-60
2022/06/25 10:29:28;;;;;;;5.50;5.30;;;;;;;-143.83;100.00;62900.06;5031380;28;20029;-60
2022/06/25 10:32:13;;;;;;;5.60;5.40;;;;;;;-143.83;100.00;62900.06;5031812;28;20059;-60
2022/06/25 10:34:52;;;;;;;5.47;5.28;;;;;;;-143.83;100.00;62900.06;5030922;28;20108;-60
2022/06/25 10:37:19;;;;;;;5.57;5.38;;;;;;;-143.83;100.00;62900.06;5031187;28;20060;-60
2022/06/25 10:39:49;;;;;;;5.60;5.40;;;;;;;-143.83;100.00;62900.06;5034402;28;20116;-59
2022/06/25 10:45:04;;;;;;;5.40;5.20;;;;;;;-143.83;100.00;62900.06;5035563;28;20083;-62
2022/06/25 10:47:41;;;;;;;5.40;5.20;;;;;;;-143.83;100.00;62900.06;5035569;28;20591;-61
2022/06/25 10:50:32;;;;;;;5.30;5.10;;;;;;;-143.83;100.00;62900.06;5031093;28;20159;-59
2022/06/25 10:53:01;;;;;;;5.32;5.13;;;;;;;-143.83;100.00;62900.06;5034326;28;20040;-60
2022/06/25 10:55:27;;;;;;;5.70;5.50;;;;;;;-143.83;100.00;62900.06;5035730;28;20034;-59
2022/06/25 10:58:23;;;;;;;5.57;5.38;;;;;;;-143.83;100.00;62900.06;5035380;28;20028;-61
2022/06/25 11:01:01;;;;;;;5.32;5.13;;;;;;;-143.83;100.00;62900.06;5035362;28;20036;-61
2022/06/25 11:03:30;;;;;;;5.60;5.40;;;;;;;-143.83;100.00;62900.06;5035365;28;20029;-61
2022/06/25 11:05:59;;;;;;;5.47;5.28;;;;;;;-143.83;100.00;62900.06;5034795;28;20030;-61
2022/06/25 11:08:35;;;;;;;5.50;5.30;;;;;;;-143.83;100.00;62900.06;5034121;28;20449;-60
2022/06/25 11:11:03;;;;;;;5.60;5.40;;;;;;;-143.83;100.00;62900.06;5035404;28;20037;-60
2022/06/25 11:13:29;;;;;;;5.50;5.30;;;;;;;-143.83;100.00;62900.06;5035039;28;20053;-61
2022/06/25 11:15:55;;;;;;;5.70;5.50;;;;;;;-143.83;100.00;62900.06;5034687;28;20076;-59
2022/06/25 11:18:20;;;;;;;5.50;5.30;;;;;;;-143.83;100.00;62900.06;5034446;28;20033;-60
2022/06/25 11:20:49;;;;;;;5.45;5.25;;;;;;;-143.83;100.00;62900.06;5025484;28;20030;-60
2022/06/25 11:23:16;;;;;;;5.40;5.20;;;;;;;-143.83;100.00;62900.06;5033368;28;20032;-60
2022/06/25 11:28:48;;;;;;;5.60;5.40;;;;;;;-143.83;100.00;62900.06;5035030;28;20029;-60
2022/06/25 11:31:22;;;;;;;5.55;5.35;;;;;;;-143.83;100.00;62900.06;5035106;28;20463;-61
2022/06/25 11:33:48;;;;;;;;;;;;;;;-143.83;100.00;62900.06;5035165;28;20029;-62